Time;durP1;ratioP1;P1;durP2;ratioP2;P2;SDS_P1;SDS_P2;PMS_P1;PMS_P2;Temp;Humidity;BMP_temperature;BMP_pressure;BME280_temperature;BME280_humidity;BME280_pressure;Samples;Min_cycle;Max_cycle;Signal;HPM_P1;HPM_P2
2021/10/17 00:02:15;;;;;;;12.95;11.27;;;;;;;15.98;67.35;101262.69;5014127;28;102371;-81
2021/10/17 00:04:41;;;;;;;12.20;10.70;;;;;;;15.98;67.49;101266.25;5014765;28;102106;-81
2021/10/17 00:07:10;;;;;;;12.63;10.52;;;;;;;15.98;67.67;101259.94;5007765;28;103866;-80
2021/10/17 00:09:37;;;;;;;12.50;10.68;;;;;;;15.98;67.40;101252.50;5011641;28;102193;-80
2021/10/17 00:12:07;;;;;;;14.00;11.30;;;;;;;15.98;67.36;101263.50;5014085;28;103163;-85
2021/10/17 00:14:34;;;;;;;12.18;10.70;;;;;;;15.97;67.54;101259.09;5014651;28;102739;-80
2021/10/17 00:17:01;;;;;;;12.65;10.93;;;;;;;15.98;67.50;101258.00;5012734;28;103343;-81
2021/10/17 00:19:28;;;;;;;11.60;10.38;;;;;;;15.97;67.43;101256.34;5007168;28;102859;-81
2021/10/17 00:21:54;;;;;;;13.05;11.65;;;;;;;15.97;67.19;101245.38;5011681;28;102058;-81
2021/10/17 00:24:21;;;;;;;12.35;10.23;;;;;;;15.98;67.43;101258.00;5016694;28;102552;-81
2021/10/17 00:26:48;;;;;;;11.82;10.63;;;;;;;15.97;67.22;101256.34;5014299;28;102482;-81
2021/10/17 00:29:16;;;;;;;12.38;9.98;;;;;;;15.98;67.54;101263.50;5007143;28;102140;-81
2021/10/17 00:31:42;;;;;;;11.45;10.25;;;;;;;15.97;67.41;101267.31;5014974;28;102335;-80
2021/10/17 00:34:09;;;;;;;11.27;10.07;;;;;;;15.97;67.46;101261.84;5012639;28;102230;-80
2021/10/17 00:36:36;;;;;;;12.15;10.48;;;;;;;15.98;67.01;101263.50;5013166;28;102739;-80
2021/10/17 00:39:05;;;;;;;11.88;10.45;;;;;;;15.98;67.60;101260.75;5012878;28;102208;-81
2021/10/17 00:41:32;;;;;;;12.20;10.98;;;;;;;15.99;67.31;101267.06;5006945;28;102342;-80
2021/10/17 00:44:00;;;;;;;12.55;11.23;;;;;;;15.97;67.54;101267.31;5014853;27;102467;-81
2021/10/17 00:46:28;;;;;;;12.88;10.85;;;;;;;15.98;67.25;101257.19;5012480;28;103270;-80
2021/10/17 00:48:55;;;;;;;12.38;10.32;;;;;;;15.97;67.21;101259.09;5015276;28;102235;-80
2021/10/17 00:51:21;;;;;;;13.68;10.77;;;;;;;15.97;67.38;101259.09;5008115;28;102714;-79
2021/10/17 00:53:48;;;;;;;13.52;10.73;;;;;;;15.98;67.46;101257.19;5015226;28;102731;-85
2021/10/17 00:56:15;;;;;;;11.70;10.50;;;;;;;15.98;67.23;101255.25;5012702;28;103898;-84
2021/10/17 00:58:42;;;;;;;12.77;10.68;;;;;;;15.97;67.17;101256.34;5015450;28;102611;-85
2021/10/17 01:01:08;;;;;;;11.50;10.30;;;;;;;15.98;67.44;101257.19;5004424;28;102494;-85
2021/10/17 01:03:36;;;;;;;11.52;9.88;;;;;;;15.98;67.61;101258.00;5013708;28;102606;-85
2021/10/17 01:06:07;;;;;;;12.65;11.23;;;;;;;15.97;67.27;101261.84;5010930;28;103225;-85
2021/10/17 01:08:33;;;;;;;14.75;10.70;;;;;;;15.97;67.45;101259.09;5012121;28;102658;-85
2021/10/17 01:11:00;;;;;;;12.80;10.48;;;;;;;15.98;67.46;101254.44;5012931;28;102210;-85
2021/10/17 01:13:26;;;;;;;12.13;10.88;;;;;;;15.97;67.24;101261.84;5014092;28;102445;-85
2021/10/17 01:15:56;;;;;;;16.75;11.68;;;;;;;15.98;67.46;101260.75;5012985;28;104631;-85
2021/10/17 01:18:24;;;;;;;12.20;10.32;;;;;;;15.97;67.44;101261.84;5013784;28;102068;-84
2021/10/17 01:20:52;;;;;;;11.50;10.30;;;;;;;15.98;67.43;101271.72;5012063;28;102408;-84
2021/10/17 01:23:20;;;;;;;12.27;10.52;;;;;;;15.98;67.47;101257.19;5016776;28;102350;-85
2021/10/17 01:25:47;;;;;;;19.90;10.95;;;;;;;15.98;67.22;101262.69;5014841;28;105103;-85
2021/10/17 01:28:14;;;;;;;13.52;10.48;;;;;;;15.97;67.51;101259.09;5018360;28;102471;-85
2021/10/17 01:30:41;;;;;;;15.27;11.57;;;;;;;15.97;67.25;101259.09;5016487;28;102221;-81
2021/10/17 01:33:07;;;;;;;12.98;10.63;;;;;;;15.97;67.58;101267.31;5016357;27;103489;-81
2021/10/17 01:35:34;;;;;;;11.73;10.52;;;;;;;15.97;67.10;101261.84;5013532;28;103078;-81
2021/10/17 01:38:02;;;;;;;15.43;10.95;;;;;;;15.96;67.59;101260.22;5016940;28;102304;-81
2021/10/17 01:40:30;;;;;;;17.08;10.98;;;;;;;15.97;67.32;101253.59;5013111;28;102190;-81
2021/10/17 01:42:57;;;;;;;14.10;11.35;;;;;;;15.97;67.41;101261.84;5016088;28;102164;-80
2021/10/17 01:45:23;;;;;;;12.38;10.52;;;;;;;15.97;67.31;101256.34;5015689;28;102787;-82
2021/10/17 01:47:52;;;;;;;11.70;10.48;;;;;;;15.97;67.30;101261.84;5016312;28;102034;-81
2021/10/17 01:50:20;;;;;;;;;;;;;;;15.97;67.90;101261.84;5016727;28;102265;-86
2021/10/17 01:52:47;;;;;;;13.07;11.07;;;;;;;15.97;67.30;101267.31;5015888;28;102294;-86
2021/10/17 01:55:15;;;;;;;12.32;10.60;;;;;;;15.97;67.47;101267.31;5013140;27;102775;-86
2021/10/17 01:57:41;;;;;;;13.45;11.57;;;;;;;15.97;67.66;101266.53;5010887;28;102588;-86
2021/10/17 02:00:09;;;;;;;13.07;11.65;;;;;;;15.97;67.74;101264.59;5012010;28;102369;-86
2021/10/17 02:02:37;;;;;;;13.95;11.20;;;;;;;15.97;67.51;101267.31;5018071;28;102189;-86
2021/10/17 02:05:04;;;;;;;13.63;11.63;;;;;;;15.97;67.18;101272.81;5013970;28;102727;-85
2021/10/17 02:07:31;;;;;;;12.32;11.02;;;;;;;15.97;67.49;101272.81;5017664;28;102637;-85
2021/10/17 02:09:57;;;;;;;12.73;11.43;;;;;;;15.97;67.13;101270.06;5015091;28;102129;-81
2021/10/17 02:12:26;;;;;;;16.58;11.50;;;;;;;15.96;67.06;101268.44;5018776;28;102801;-81
2021/10/17 02:14:53;;;;;;;15.10;12.20;;;;;;;15.97;67.25;101266.53;5013313;28;103977;-79
2021/10/17 02:17:20;;;;;;;12.90;11.13;;;;;;;15.96;67.52;101268.44;5016052;28;102659;-80
2021/10/17 02:19:46;;;;;;;14.60;11.68;;;;;;;15.97;67.19;101269.25;5016449;28;102421;-81
2021/10/17 02:22:13;;;;;;;14.50;11.57;;;;;;;15.96;67.23;101268.44;5019379;28;102450;-81
2021/10/17 02:24:40;;;;;;;14.15;11.63;;;;;;;15.96;67.67;101268.44;5012218;28;104046;-80
2021/10/17 02:27:06;;;;;;;13.00;11.07;;;;;;;15.96;67.19;101271.19;5016485;28;101967;-85
2021/10/17 02:29:35;;;;;;;16.08;11.80;;;;;;;15.97;67.32;101272.81;5019875;28;102561;-80
2021/10/17 02:32:02;;;;;;;14.68;11.85;;;;;;;15.97;67.73;101274.75;5020536;28;102202;-81
2021/10/17 02:34:28;;;;;;;13.52;11.93;;;;;;;15.96;67.73;101268.44;5020850;28;103915;-80
2021/10/17 02:36:55;;;;;;;13.63;11.52;;;;;;;15.96;67.66;101273.94;5019851;28;102319;-81
2021/10/17 02:39:21;;;;;;;15.10;12.27;;;;;;;15.96;67.67;101276.69;5019024;28;101957;-80
2021/10/17 02:41:48;;;;;;;14.77;12.52;;;;;;;15.97;67.65;101277.50;5019802;28;102300;-81
2021/10/17 02:44:17;;;;;;;13.07;11.40;;;;;;;15.96;67.73;101282.19;5017351;28;102267;-86
2021/10/17 02:46:45;;;;;;;14.85;12.60;;;;;;;15.97;67.31;101272.00;5015439;28;102075;-81
2021/10/17 02:49:11;;;;;;;12.95;11.48;;;;;;;15.95;67.50;101275.06;5018241;28;102199;-81
2021/10/17 02:51:38;;;;;;;14.73;11.93;;;;;;;15.95;67.60;101280.56;5019540;28;102401;-81
2021/10/17 02:54:04;;;;;;;12.57;11.27;;;;;;;15.96;67.86;101276.69;5015647;28;103689;-81
2021/10/17 02:56:31;;;;;;;14.57;12.13;;;;;;;15.96;67.57;101282.19;5014623;28;102110;-81
2021/10/17 02:58:57;;;;;;;15.30;11.98;;;;;;;15.96;67.36;101281.38;5016081;28;102173;-82
2021/10/17 03:01:24;;;;;;;13.32;11.90;;;;;;;15.96;67.51;101276.69;5017059;28;102359;-82
2021/10/17 03:03:52;;;;;;;13.98;12.07;;;;;;;15.96;67.54;101281.38;5016361;28;102797;-82
2021/10/17 03:06:19;;;;;;;14.68;12.27;;;;;;;15.96;67.52;101279.44;5016164;28;102159;-82
2021/10/17 03:08:46;;;;;;;14.60;12.18;;;;;;;15.96;67.54;101279.44;5013393;28;102325;-82
2021/10/17 03:11:12;;;;;;;13.45;11.20;;;;;;;15.96;67.65;101287.66;5011858;28;102641;-82
2021/10/17 03:13:39;;;;;;;14.98;12.15;;;;;;;15.95;67.09;101285.22;5014761;28;102388;-82
2021/10/17 03:16:05;;;;;;;14.52;12.00;;;;;;;15.95;67.27;101280.56;5016519;28;103420;-82
2021/10/17 03:18:33;;;;;;;15.98;12.48;;;;;;;15.96;67.00;101282.19;5013553;28;102425;-82
2021/10/17 03:21:01;;;;;;;14.30;12.55;;;;;;;15.95;67.54;101277.81;5015449;28;102516;-82
2021/10/17 03:23:27;;;;;;;13.82;12.32;;;;;;;15.95;67.56;101275.06;5007117;28;103905;-82
2021/10/17 03:25:54;;;;;;;14.25;12.43;;;;;;;15.95;67.32;101280.56;5015966;27;102828;-84
2021/10/17 03:28:21;;;;;;;14.50;12.95;;;;;;;15.95;67.26;101285.22;5006625;28;102345;-85
2021/10/17 03:30:50;;;;;;;13.70;11.88;;;;;;;15.95;67.42;101287.97;5018162;27;102217;-85
2021/10/17 03:33:16;;;;;;;13.80;12.35;;;;;;;15.95;67.57;101291.53;5010948;28;104020;-85
2021/10/17 03:35:43;;;;;;;15.48;12.93;;;;;;;15.95;67.66;101282.47;5016458;28;102667;-85
2021/10/17 03:38:12;;;;;;;14.05;12.13;;;;;;;15.94;67.39;101295.41;5014984;28;102031;-85
2021/10/17 03:40:38;;;;;;;15.13;12.77;;;;;;;15.95;67.30;101297.03;5012422;28;102267;-85
2021/10/17 03:43:05;;;;;;;14.73;12.77;;;;;;;15.95;67.70;101291.53;5013633;28;102732;-84
2021/10/17 03:45:33;;;;;;;15.02;13.38;;;;;;;15.95;67.70;101296.22;5013191;28;102414;-82
2021/10/17 03:47:59;;;;;;;15.45;12.90;;;;;;;15.94;67.60;101298.13;5016113;27;102167;-82
2021/10/17 03:50:26;;;;;;;15.13;13.05;;;;;;;15.94;67.55;101294.56;5010845;28;102281;-81
2021/10/17 03:52:53;;;;;;;16.98;14.25;;;;;;;15.93;67.43;101299.22;5007709;28;102717;-82
2021/10/17 03:55:21;;;;;;;15.35;13.25;;;;;;;15.95;67.18;101308.00;5012095;28;102383;-81
2021/10/17 03:57:47;;;;;;;16.10;13.73;;;;;;;15.94;67.81;101306.38;5016118;28;102162;-81
2021/10/17 04:00:13;;;;;;;15.40;13.20;;;;;;;15.94;67.60;101311.88;5013459;28;102641;-82
2021/10/17 04:02:40;;;;;;;14.20;12.70;;;;;;;15.94;67.69;101314.59;5014627;28;102673;-82
2021/10/17 04:05:08;;;;;;;15.40;12.90;;;;;;;15.95;67.48;101315.44;5012802;28;102288;-82
2021/10/17 04:07:35;;;;;;;14.25;12.55;;;;;;;15.94;67.45;101314.59;5014027;28;102423;-81
2021/10/17 04:10:02;;;;;;;15.27;13.68;;;;;;;15.94;67.43;101317.34;5014162;28;102179;-81
2021/10/17 04:12:30;;;;;;;16.27;12.82;;;;;;;15.94;67.17;101316.50;5013181;28;102749;-82
2021/10/17 04:14:57;;;;;;;15.18;13.52;;;;;;;15.94;67.40;101316.50;5013062;28;104237;-81
2021/10/17 04:17:24;;;;;;;16.08;13.32;;;;;;;15.95;67.31;101318.97;5015290;28;102414;-81
2021/10/17 04:19:50;;;;;;;15.85;13.63;;;;;;;15.94;67.57;101319.25;5014713;28;102196;-84
2021/10/17 04:22:18;;;;;;;15.88;13.32;;;;;;;15.94;67.51;101325.59;5011321;28;103724;-81
2021/10/17 04:24:45;;;;;;;16.75;13.85;;;;;;;15.95;67.59;101331.91;5015049;28;102553;-81
2021/10/17 04:27:12;;;;;;;17.75;14.00;;;;;;;15.95;67.43;101326.41;5012878;28;102047;-82
2021/10/17 04:29:40;;;;;;;15.02;13.20;;;;;;;15.95;67.58;101340.13;5005102;28;102210;-82
2021/10/17 04:32:08;;;;;;;15.85;13.68;;;;;;;15.93;67.76;101348.63;5014673;28;104071;-82
2021/10/17 04:34:35;;;;;;;16.85;14.27;;;;;;;15.94;67.59;101344.81;5014270;28;102318;-81
2021/10/17 04:37:02;;;;;;;16.05;13.25;;;;;;;15.95;67.65;101345.63;5007384;28;102559;-81
2021/10/17 04:39:30;;;;;;;16.08;13.38;;;;;;;15.94;67.34;101343.97;5014648;28;102444;-84
2021/10/17 04:41:58;;;;;;;15.73;13.77;;;;;;;15.94;67.54;101350.28;5010244;28;102702;-84
2021/10/17 04:44:25;;;;;;;20.35;13.93;;;;;;;15.94;67.31;101344.81;5013762;28;102505;-84
2021/10/17 04:46:53;;;;;;;14.45;12.82;;;;;;;15.94;67.58;101354.94;5010669;28;102265;-84
2021/10/17 04:49:25;;;;;;;17.53;14.43;;;;;;;15.94;67.27;101358.53;5013285;28;102581;-85
2021/10/17 04:51:52;;;;;;;16.17;14.07;;;;;;;15.93;67.62;101362.38;5012240;28;103203;-85
2021/10/17 04:54:18;;;;;;;15.82;14.15;;;;;;;15.94;67.34;101366.75;5017389;28;102235;-85
2021/10/17 04:56:45;;;;;;;15.93;13.40;;;;;;;15.93;67.61;101362.38;5017410;28;102272;-85
2021/10/17 04:59:13;;;;;;;16.30;14.13;;;;;;;15.94;67.47;101372.25;5019705;28;102306;-84
2021/10/17 05:01:40;;;;;;;14.70;12.90;;;;;;;15.94;67.39;101369.50;5016961;28;102574;-82
2021/10/17 05:04:08;;;;;;;15.65;14.00;;;;;;;15.93;67.08;101365.09;5012863;28;102308;-81
2021/10/17 05:06:35;;;;;;;16.52;13.75;;;;;;;15.93;67.48;101370.59;5010759;28;102198;-81
2021/10/17 05:09:02;;;;;;;16.85;14.13;;;;;;;15.93;67.42;101370.59;5015513;28;102368;-81
2021/10/17 05:11:28;;;;;;;16.58;14.75;;;;;;;15.95;67.27;101378.56;5016187;28;103960;-81
2021/10/17 05:13:55;;;;;;;15.13;13.40;;;;;;;15.94;67.26;101372.25;5018035;28;102312;-81
2021/10/17 05:16:21;;;;;;;15.85;14.25;;;;;;;15.93;67.43;101373.34;5016475;28;102133;-81
2021/10/17 05:18:47;;;;;;;15.68;13.95;;;;;;;15.93;67.28;101376.09;5018933;28;102216;-85
2021/10/17 05:21:15;;;;;;;17.45;14.00;;;;;;;15.94;67.37;101383.25;5014664;27;104760;-86
2021/10/17 05:23:42;;;;;;;17.47;14.90;;;;;;;15.94;67.12;101383.25;5017965;28;102347;-85
2021/10/17 05:26:09;;;;;;;17.88;15.05;;;;;;;15.95;67.48;101384.06;5010150;28;102810;-85
2021/10/17 05:28:35;;;;;;;17.05;14.43;;;;;;;15.93;67.37;101389.81;5014501;28;102457;-85
2021/10/17 05:31:05;;;;;;;17.83;14.55;;;;;;;15.93;67.31;101386.25;5017323;28;103079;-86
2021/10/17 05:33:36;;;;;;;17.25;14.77;;;;;;;15.94;67.27;101393.38;5017182;28;102308;-85
2021/10/17 05:36:03;;;;;;;17.25;14.32;;;;;;;15.93;67.31;101400.78;5015641;28;102191;-81
2021/10/17 05:38:32;;;;;;;16.65;14.88;;;;;;;15.93;67.64;101398.06;5012582;28;102650;-81
2021/10/17 05:40:59;;;;;;;16.48;14.77;;;;;;;15.93;67.25;101395.31;5016383;27;103933;-82
2021/10/17 05:43:25;;;;;;;17.23;14.48;;;;;;;15.93;67.73;101403.53;5010670;28;102395;-82
2021/10/17 05:45:51;;;;;;;19.10;15.88;;;;;;;15.93;67.51;101399.97;5002808;28;102202;-79
2021/10/17 05:48:18;;;;;;;18.15;15.90;;;;;;;15.93;67.57;101406.28;5014100;28;103122;-79
2021/10/17 05:50:45;;;;;;;17.30;15.20;;;;;;;15.93;67.65;101403.53;5007637;28;102756;-81
2021/10/17 05:53:11;;;;;;;17.00;14.55;;;;;;;15.94;67.73;101401.59;5010897;28;102260;-79
2021/10/17 05:55:40;;;;;;;16.83;14.38;;;;;;;15.94;67.36;101404.34;5006384;28;103245;-82
2021/10/17 05:58:07;;;;;;;17.10;14.77;;;;;;;15.93;67.18;101406.28;4998807;28;102687;-78
2021/10/17 06:00:34;;;;;;;18.17;15.23;;;;;;;15.94;67.70;101409.84;5000374;27;103907;-79
2021/10/17 06:03:00;;;;;;;17.73;15.10;;;;;;;15.95;67.21;101411.50;5007359;28;102862;-79
2021/10/17 06:05:27;;;;;;;17.52;15.20;;;;;;;15.94;67.70;101407.09;5005711;28;103312;-79
2021/10/17 06:07:53;;;;;;;17.83;15.60;;;;;;;15.93;67.63;101409.03;5007083;28;102212;-79
2021/10/17 06:10:20;;;;;;;18.25;15.07;;;;;;;15.94;67.46;101412.59;5009317;28;103880;-79
2021/10/17 06:12:49;;;;;;;18.27;15.68;;;;;;;15.94;67.60;101413.44;5011888;28;102832;-79
2021/10/17 06:15:16;;;;;;;17.80;15.82;;;;;;;15.94;67.75;101415.34;5006103;28;102752;-78
2021/10/17 06:17:42;;;;;;;19.50;16.20;;;;;;;15.93;67.31;101420.00;5016245;28;103178;-82
2021/10/17 06:20:09;;;;;;;18.77;15.68;;;;;;;15.94;67.65;101418.91;5015948;28;103943;-82
2021/10/17 06:22:37;;;;;;;16.65;14.20;;;;;;;15.94;67.78;101427.16;5016652;28;102119;-82
2021/10/17 06:25:04;;;;;;;19.45;15.75;;;;;;;15.94;67.71;101418.06;5012904;28;102545;-82
2021/10/17 06:27:32;;;;;;;17.13;15.25;;;;;;;15.94;67.29;101421.66;5002275;28;102607;-81
2021/10/17 06:30:00;;;;;;;18.33;16.30;;;;;;;15.94;67.73;101418.91;5012059;28;102607;-82
2021/10/17 06:32:26;;;;;;;19.20;15.82;;;;;;;15.94;67.79;101423.56;5010807;28;103668;-82
2021/10/17 06:34:53;;;;;;;19.92;16.25;;;;;;;15.94;67.23;101431.81;5006392;28;102400;-83
2021/10/17 06:37:19;;;;;;;18.10;16.08;;;;;;;15.94;67.60;101429.91;5018186;28;102528;-82
2021/10/17 06:39:46;;;;;;;18.65;16.00;;;;;;;15.95;67.55;101433.47;5014058;28;102736;-83
2021/10/17 06:42:13;;;;;;;17.95;16.05;;;;;;;15.94;67.36;101418.91;5010260;28;102290;-83
2021/10/17 06:44:40;;;;;;;18.52;15.95;;;;;;;15.94;67.68;101427.16;5009545;27;102614;-82
2021/10/17 06:47:08;;;;;;;19.42;15.88;;;;;;;15.93;67.38;101436.47;5010806;27;102308;-83
2021/10/17 06:49:37;;;;;;;19.25;15.57;;;;;;;15.94;67.20;101421.66;5011253;28;104807;-83
2021/10/17 06:52:04;;;;;;;18.63;16.13;;;;;;;15.94;67.58;101427.16;5015985;27;103716;-86
2021/10/17 06:54:31;;;;;;;20.45;16.77;;;;;;;15.93;67.46;101433.72;5012854;28;102588;-86
2021/10/17 06:56:57;;;;;;;22.40;17.48;;;;;;;15.94;67.35;101431.81;5016099;28;102198;-87
2021/10/17 06:59:24;;;;;;;21.17;17.27;;;;;;;15.93;67.48;101436.47;5012755;28;103037;-84
2021/10/17 07:01:50;;;;;;;22.20;16.92;;;;;;;15.93;67.69;101436.47;5014774;28;102259;-84
2021/10/17 07:04:18;;;;;;;19.92;15.95;;;;;;;15.94;67.46;101438.13;5015749;28;102126;-85
2021/10/17 07:06:45;;;;;;;20.30;16.33;;;;;;;15.94;67.53;101427.16;5019760;27;102300;-83
2021/10/17 07:09:12;;;;;;;19.30;17.10;;;;;;;15.93;67.63;101431.00;5008765;28;104204;-83
2021/10/17 07:11:39;;;;;;;21.75;17.35;;;;;;;15.94;67.54;101431.81;5010042;28;102109;-80
2021/10/17 07:14:05;;;;;;;20.63;17.55;;;;;;;15.95;67.67;101427.97;5016235;28;102642;-80
2021/10/17 07:16:33;;;;;;;19.50;17.30;;;;;;;15.94;67.43;101429.91;5019066;28;102350;-79
2021/10/17 07:18:59;;;;;;;20.98;16.77;;;;;;;15.94;67.42;101424.41;5006921;28;102766;-79
2021/10/17 07:21:28;;;;;;;22.20;17.20;;;;;;;15.94;67.57;101431.81;5017751;28;103582;-79
2021/10/17 07:23:54;;;;;;;19.87;17.50;;;;;;;15.95;67.63;101427.97;5018860;28;102253;-80
2021/10/17 07:26:21;;;;;;;19.80;17.42;;;;;;;15.95;67.76;101425.22;5012151;27;102102;-79
2021/10/17 07:28:47;;;;;;;20.98;17.13;;;;;;;15.94;67.61;101432.66;5008886;28;104337;-80
2021/10/17 07:31:14;;;;;;;21.10;17.73;;;;;;;15.95;67.23;101426.03;5011709;28;102427;-80
2021/10/17 07:33:41;;;;;;;20.85;17.60;;;;;;;15.96;67.44;101435.09;5010567;28;102225;-85
2021/10/17 07:36:07;;;;;;;20.42;17.20;;;;;;;15.95;67.54;101431.53;5009923;28;102341;-85
2021/10/17 07:38:37;;;;;;;20.42;17.15;;;;;;;15.96;67.96;101422.19;5019144;28;102590;-86
2021/10/17 07:41:03;;;;;;;21.23;17.67;;;;;;;15.96;67.42;101435.91;5014212;28;102390;-87
2021/10/17 07:43:31;;;;;;;20.60;17.23;;;;;;;15.97;67.72;101426.56;5025844;27;102504;-86
2021/10/17 07:46:01;;;;;;;20.95;17.48;;;;;;;15.97;67.96;101432.03;5017396;28;102256;-86
2021/10/17 07:48:28;;;;;;;19.77;17.27;;;;;;;15.98;67.92;101428.22;5015106;28;103823;-86
2021/10/17 07:50:55;;;;;;;20.63;17.17;;;;;;;15.99;67.48;101429.03;5001176;28;102173;-87
2021/10/17 07:53:21;;;;;;;20.45;16.98;;;;;;;15.98;67.86;101428.22;5014429;28;102684;-86
2021/10/17 07:55:50;;;;;;;19.20;16.92;;;;;;;15.99;67.66;101429.84;5011760;28;102539;-86
2021/10/17 07:58:16;;;;;;;20.77;17.63;;;;;;;15.99;67.70;101429.84;5011688;28;104768;-86
2021/10/17 08:00:42;;;;;;;20.88;17.85;;;;;;;16.00;68.12;101425.16;5009946;28;102671;-88
2021/10/17 08:03:10;;;;;;;20.63;17.50;;;;;;;16.02;67.78;101426.50;5008600;27;103360;-87
2021/10/17 08:05:37;;;;;;;20.65;17.58;;;;;;;16.01;67.67;101427.63;5027204;27;102184;-88
2021/10/17 08:08:04;;;;;;;20.80;17.60;;;;;;;16.03;67.50;101430.06;5011549;28;102706;-92
2021/10/17 08:10:31;;;;;;;19.17;17.02;;;;;;;16.01;67.99;101427.63;5013129;28;102513;-82
2021/10/17 08:12:59;;;;;;;21.92;18.92;;;;;;;16.03;68.00;101430.88;5006891;28;102815;-81
2021/10/17 08:15:26;;;;;;;21.20;18.20;;;;;;;16.04;67.68;101432.53;5014599;27;102314;-81
2021/10/17 08:17:54;;;;;;;20.17;17.38;;;;;;;16.04;68.02;101427.03;5008156;28;104401;-82
2021/10/17 08:20:21;;;;;;;20.57;18.13;;;;;;;16.03;67.58;101425.41;5004534;28;105467;-82
2021/10/17 08:22:47;;;;;;;23.67;18.05;;;;;;;16.05;67.65;101428.69;5005254;28;102248;-83
2021/10/17 08:25:14;;;;;;;19.23;17.13;;;;;;;16.03;67.93;101430.88;5013969;28;102548;-82
2021/10/17 08:27:41;;;;;;;21.88;18.80;;;;;;;16.05;67.98;101428.69;5008789;28;103746;-88
2021/10/17 08:30:11;;;;;;;20.88;17.55;;;;;;;16.05;67.61;101428.69;5013366;28;102452;-81
2021/10/17 08:32:38;;;;;;;18.90;16.75;;;;;;;16.05;67.99;101434.19;5011565;28;102608;-82
2021/10/17 08:35:05;;;;;;;19.52;17.38;;;;;;;16.05;67.64;101434.19;5010344;28;102281;-82
2021/10/17 08:37:33;;;;;;;20.75;17.52;;;;;;;16.05;67.96;101428.69;5011134;28;107021;-83
2021/10/17 08:40:00;;;;;;;20.23;16.67;;;;;;;16.06;67.84;101441.28;5014547;28;102445;-83
2021/10/17 08:42:27;;;;;;;20.98;18.67;;;;;;;16.05;68.12;101434.19;5013819;28;102634;-82
2021/10/17 08:44:56;;;;;;;20.50;17.85;;;;;;;16.05;67.60;101434.19;5010857;28;102440;-82
2021/10/17 08:47:25;;;;;;;;;;;;;;;16.07;67.80;101439.38;5014166;28;105056;-83
2021/10/17 08:49:53;;;;;;;20.67;17.85;;;;;;;16.06;67.59;101435.81;5012992;28;102503;-86
2021/10/17 08:52:19;;;;;;;21.25;18.45;;;;;;;16.06;67.71;101433.06;5011464;28;102449;-88
2021/10/17 08:54:46;;;;;;;20.95;16.92;;;;;;;16.06;67.90;101435.81;5012841;28;102414;-88
2021/10/17 08:57:12;;;;;;;20.58;17.77;;;;;;;16.06;67.88;101433.06;5014778;28;102504;-87
2021/10/17 08:59:44;;;;;;;21.73;18.02;;;;;;;16.07;67.58;101436.63;5013330;28;102180;-87
2021/10/17 09:02:12;;;;;;;20.45;17.77;;;;;;;16.07;68.03;101442.09;5011603;28;102466;-88
2021/10/17 09:04:41;;;;;;;20.57;18.33;;;;;;;16.07;67.86;101436.63;5015187;28;102510;-88
2021/10/17 09:07:18;;;;;;;20.00;17.43;;;;;;;16.08;67.58;101438.25;5013587;28;104064;-88
2021/10/17 09:10:05;;;;;;;20.77;18.40;;;;;;;16.07;67.52;101437.44;5012639;28;103503;-88
2021/10/17 09:12:31;;;;;;;19.33;17.25;;;;;;;16.07;67.84;101437.44;5011784;28;102424;-87
2021/10/17 09:15:17;;;;;;;21.20;18.92;;;;;;;16.08;68.08;101432.75;5015088;28;102468;-88
2021/10/17 09:18:05;;;;;;;21.05;18.55;;;;;;;16.07;67.41;101436.63;5014226;27;103908;-88
2021/10/17 09:20:35;;;;;;;22.98;19.48;;;;;;;16.07;68.00;101437.44;5013579;28;102511;-87
2021/10/17 09:23:03;;;;;;;20.67;17.70;;;;;;;16.08;67.69;101439.09;5009095;28;102185;-88
2021/10/17 09:25:33;;;;;;;21.55;18.77;;;;;;;16.07;67.63;101440.19;5000951;28;103022;-87
2021/10/17 09:28:00;;;;;;;20.60;17.73;;;;;;;16.07;67.91;101431.13;5001690;28;102749;-87
2021/10/17 09:30:26;;;;;;;23.08;18.65;;;;;;;16.07;67.52;101434.69;5009719;28;102169;-87
2021/10/17 09:33:09;;;;;;;23.08;18.38;;;;;;;16.07;67.98;101431.94;5012009;28;102162;-87
2021/10/17 09:35:37;;;;;;;23.13;19.23;;;;;;;16.07;67.58;101437.44;5013734;28;102361;-87
2021/10/17 09:38:04;;;;;;;21.23;18.90;;;;;;;16.07;67.48;101437.44;5011675;28;103900;-89
2021/10/17 09:40:33;;;;;;;22.35;18.70;;;;;;;16.07;67.49;101436.63;5016388;28;102198;-88
2021/10/17 09:43:05;;;;;;;21.88;18.42;;;;;;;16.07;67.72;101437.44;5014572;28;102766;-88
2021/10/17 09:45:32;;;;;;;23.80;18.80;;;;;;;16.08;67.44;101433.59;5011621;28;102413;-87
2021/10/17 09:47:59;;;;;;;21.00;17.92;;;;;;;16.07;67.91;101422.88;5015242;28;102767;-82
2021/10/17 09:50:26;;;;;;;20.55;16.98;;;;;;;16.07;67.30;101431.94;5015757;28;102262;-82
2021/10/17 09:53:08;;;;;;;21.55;18.15;;;;;;;16.08;67.80;101430.84;5018036;28;102127;-82
2021/10/17 09:55:35;;;;;;;20.48;16.70;;;;;;;16.07;67.71;101431.94;5017557;27;102703;-82
2021/10/17 09:58:04;;;;;;;19.83;17.73;;;;;;;16.07;67.53;101429.19;5015283;28;102765;-81
2021/10/17 10:00:33;;;;;;;22.40;19.05;;;;;;;16.07;67.58;101437.44;5018173;28;103092;-82
2021/10/17 10:03:00;;;;;;;;;;;;;;;16.07;67.47;101431.94;5006768;28;103031;-81
2021/10/17 10:05:29;;;;;;;20.38;17.83;;;;;;;16.07;67.42;101431.94;5032396;27;102292;-82
2021/10/17 10:08:00;;;;;;;22.45;18.40;;;;;;;16.07;67.36;101429.19;5009523;28;103751;-82
2021/10/17 10:10:27;;;;;;;22.02;17.98;;;;;;;16.07;67.71;101428.38;5016885;28;101978;-82
2021/10/17 10:12:56;;;;;;;24.05;19.48;;;;;;;16.07;67.49;101431.94;5015810;28;102069;-82
2021/10/17 10:15:24;;;;;;;22.73;18.40;;;;;;;16.07;67.71;101425.63;5016211;28;102460;-82
2021/10/17 10:18:03;;;;;;;24.13;18.40;;;;;;;16.06;67.58;101416.59;5015333;28;102882;-82
2021/10/17 10:20:30;;;;;;;20.08;17.48;;;;;;;16.06;67.32;101419.34;5013814;28;102167;-82
2021/10/17 10:22:58;;;;;;;22.88;18.40;;;;;;;16.07;67.76;101420.16;5009201;28;102310;-87
2021/10/17 10:25:27;;;;;;;21.90;18.50;;;;;;;16.05;67.89;101417.69;5017189;28;102435;-88
2021/10/17 10:27:53;;;;;;;22.05;18.27;;;;;;;16.07;67.44;101409.97;5015238;28;104006;-87
2021/10/17 10:30:25;;;;;;;20.13;17.08;;;;;;;16.08;67.64;101421.78;5016804;28;102543;-88
2021/10/17 10:33:10;;;;;;;19.73;17.08;;;;;;;16.07;67.38;101422.88;5016636;28;102856;-87
2021/10/17 10:35:57;;;;;;;21.77;18.15;;;;;;;16.07;67.50;101422.88;5009199;28;102280;-88
2021/10/17 10:38:56;;;;;;;21.98;17.77;;;;;;;16.07;67.40;101418.22;5015454;28;106700;-88
2021/10/17 10:41:30;;;;;;;20.30;17.35;;;;;;;16.07;67.37;101420.16;5012237;28;102095;-88
2021/10/17 10:44:11;;;;;;;22.77;18.17;;;;;;;16.06;67.35;101413.84;5014356;28;102369;-82
2021/10/17 10:46:38;;;;;;;20.35;17.92;;;;;;;16.06;67.57;101413.84;5004647;28;102536;-82
2021/10/17 10:49:05;;;;;;;20.63;17.35;;;;;;;16.06;67.77;101407.53;5015892;28;102276;-82
2021/10/17 10:51:41;;;;;;;18.98;16.98;;;;;;;16.07;67.90;101404.47;5001203;28;102249;-82
2021/10/17 10:54:32;;;;;;;20.30;16.90;;;;;;;16.06;67.39;101402.03;5009268;28;102510;-82
2021/10/17 10:56:59;;;;;;;20.15;17.90;;;;;;;16.06;67.57;101405.59;5012788;28;102204;-81
2021/10/17 10:59:48;;;;;;;21.10;17.88;;;;;;;16.05;67.34;101401.22;5014778;28;103256;-82
2021/10/17 11:02:19;;;;;;;18.60;16.55;;;;;;;16.05;67.50;101398.47;5008919;28;102113;-88
2021/10/17 11:05:01;;;;;;;21.27;17.55;;;;;;;16.05;67.34;101400.41;5011595;28;102203;-82
2021/10/17 11:07:39;;;;;;;19.80;17.02;;;;;;;16.05;67.47;101398.47;5017442;27;102351;-82